Time;durP1;ratioP1;P1;durP2;ratioP2;P2;SDS_P1;SDS_P2;PMS_P1;PMS_P2;Temp;Humidity;BMP_temperature;BMP_pressure;BME280_temperature;BME280_humidity;BME280_pressure;Samples;Min_cycle;Max_cycle;Signal;HPM_P1;HPM_P2
2023/03/23 00:02:00;;;;;;;40.50;29.20;;;;;;;20.08;74.58;98469.78;4936152;29;20138;-60
2023/03/23 00:04:49;;;;;;;42.40;29.65;;;;;;;20.08;74.49;98477.88;4937554;29;20558;-61
2023/03/23 00:07:36;;;;;;;40.20;29.80;;;;;;;20.04;74.86;98476.75;4935101;29;20048;-62
2023/03/23 00:10:17;;;;;;;41.20;29.58;;;;;;;20.03;75.07;98490.44;4937058;29;20527;-60
2023/03/23 00:13:04;;;;;;;43.97;30.75;;;;;;;20.04;74.83;98487.50;4936833;29;20043;-60
2023/03/23 00:15:45;;;;;;;43.33;31.00;;;;;;;20.04;74.70;98487.50;4920827;29;20047;-60
2023/03/23 00:18:38;;;;;;;46.05;32.35;;;;;;;20.05;74.52;98482.91;4936938;29;20069;-61
2023/03/23 00:21:11;;;;;;;45.38;31.77;;;;;;;20.01;74.90;98479.13;4928717;29;20070;-61
2023/03/23 00:24:07;;;;;;;52.60;32.92;;;;;;;20.02;74.61;98478.88;4926858;28;20067;-61
2023/03/23 00:26:41;;;;;;;40.15;30.95;;;;;;;20.01;74.83;98479.13;4911891;29;20058;-61
2023/03/23 00:29:34;;;;;;;45.40;31.60;;;;;;;19.99;74.61;98483.97;4920786;29;20058;-61
2023/03/23 00:32:12;;;;;;;45.65;31.90;;;;;;;19.97;74.87;98484.22;4917300;29;20436;-61
2023/03/23 00:35:00;;;;;;;42.42;30.60;;;;;;;19.99;74.60;98482.09;4911329;29;20540;-61
2023/03/23 00:37:41;;;;;;;46.22;31.23;;;;;;;19.99;74.84;98481.28;4911042;29;20047;-61
2023/03/23 00:40:28;;;;;;;49.90;30.65;;;;;;;19.98;74.60;98485.03;4928694;29;20043;-61
2023/03/23 00:43:13;;;;;;;42.95;30.33;;;;;;;19.98;74.86;98487.72;4929214;29;20500;-62
2023/03/23 00:46:00;;;;;;;44.80;31.67;;;;;;;19.94;75.04;98482.06;4914161;29;20063;-61
2023/03/23 00:48:44;;;;;;;50.47;32.28;;;;;;;19.97;75.01;98491.47;4928278;29;20047;-59
2023/03/23 00:51:31;;;;;;;41.28;31.05;;;;;;;19.98;74.69;98493.91;4929724;29;20081;-60
2023/03/23 00:54:11;;;;;;;39.45;31.00;;;;;;;19.96;75.05;98495.25;4930065;29;20731;-60
2023/03/23 00:56:57;;;;;;;44.03;31.27;;;;;;;19.97;75.01;98499.53;4930373;29;20047;-60
2023/03/23 00:59:39;;;;;;;40.85;31.10;;;;;;;19.97;74.62;98504.91;4924889;28;20086;-60
2023/03/23 01:02:27;;;;;;;43.13;30.55;;;;;;;19.97;74.80;98504.91;4905820;29;20538;-61
2023/03/23 01:05:11;;;;;;;43.88;32.55;;;;;;;19.99;74.82;98506.28;4908306;29;20071;-61
2023/03/23 01:08:10;;;;;;;41.83;30.45;;;;;;;20.02;74.70;98511.16;4902358;29;20055;-61
2023/03/23 01:10:45;;;;;;;43.57;31.60;;;;;;;20.02;74.52;98519.22;4911552;29;20163;-61
2023/03/23 01:13:41;;;;;;;46.20;32.45;;;;;;;20.04;74.35;98518.97;4934213;29;20047;-60
2023/03/23 01:16:14;;;;;;;45.83;32.33;;;;;;;20.05;74.47;98518.69;4928025;29;20111;-60
2023/03/23 01:19:02;;;;;;;43.13;31.92;;;;;;;20.07;74.43;98521.13;4911050;29;20138;-61
2023/03/23 01:21:52;;;;;;;44.42;32.72;;;;;;;20.07;74.41;98521.94;4929740;29;20131;-61
2023/03/23 01:24:31;;;;;;;44.95;31.67;;;;;;;20.06;74.49;98533.75;4912263;29;20063;-61
2023/03/23 01:27:19;;;;;;;47.55;31.88;;;;;;;20.05;74.61;98529.44;4927270;29;20841;-60
2023/03/23 01:29:59;;;;;;;43.80;31.20;;;;;;;20.05;74.87;98531.31;4895648;29;20118;-61
2023/03/23 01:32:47;;;;;;;40.92;32.08;;;;;;;20.05;74.87;98536.69;4916476;29;20058;-59
2023/03/23 01:35:38;;;;;;;40.15;31.02;;;;;;;20.07;74.79;98548.00;4909482;29;20048;-59
2023/03/23 01:38:26;;;;;;;48.00;32.92;;;;;;;20.10;74.97;98551.00;4930385;29;20052;-59
2023/03/23 01:41:15;;;;;;;47.17;32.38;;;;;;;20.13;74.74;98552.38;4895521;29;20087;-60
2023/03/23 01:44:05;;;;;;;47.28;32.70;;;;;;;20.16;74.81;98563.41;4909132;29;20078;-60
2023/03/23 01:47:02;;;;;;;53.15;33.70;;;;;;;20.22;75.06;98564.28;4912244;29;20054;-59
2023/03/23 01:49:52;;;;;;;45.97;33.00;;;;;;;20.27;75.08;98568.88;4908339;29;20052;-59
2023/03/23 01:52:39;;;;;;;52.83;33.90;;;;;;;20.33;74.58;98563.28;4896810;29;20118;-59
2023/03/23 01:55:30;;;;;;;65.88;40.33;;;;;;;20.34;74.38;98566.81;4912116;29;20063;-60
2023/03/23 01:58:27;;;;;;;80.53;43.85;;;;;;;20.38;74.02;98576.78;4918721;29;20045;-60
2023/03/23 02:01:13;;;;;;;72.38;45.10;;;;;;;20.44;73.93;98581.16;4931755;28;20054;-59
2023/03/23 02:03:59;;;;;;;81.97;46.13;;;;;;;20.48;73.77;98584.94;4911100;29;20054;-59
2023/03/23 02:06:42;;;;;;;72.32;44.85;;;;;;;20.52;73.32;98583.34;4923775;29;20055;-60
2023/03/23 02:09:30;;;;;;;84.47;45.47;;;;;;;20.57;73.63;98594.16;4910733;29;20091;-60
2023/03/23 02:12:11;;;;;;;66.32;42.63;;;;;;;20.62;73.36;98607.59;4910527;29;20773;-60
2023/03/23 02:15:00;;;;;;;66.68;42.88;;;;;;;20.69;73.57;98606.56;4910993;29;20078;-60
2023/03/23 02:18:22;;;;;;;70.40;41.65;;;;;;;20.83;73.41;98611.25;4881738;29;20131;-60
2023/03/23 02:21:31;;;;;;;64.78;42.90;;;;;;;20.89;72.95;98623.66;4910113;29;20047;-60
2023/03/23 02:24:46;;;;;;;70.10;44.50;;;;;;;20.94;73.15;98621.00;4887869;29;20047;-61
2023/03/23 02:27:41;;;;;;;77.00;49.50;;;;;;;20.99;73.41;98629.09;4913347;29;20063;-60
2023/03/23 02:30:58;;;;;;;83.28;54.60;;;;;;;21.04;73.46;98628.31;4923246;29;20074;-60
2023/03/23 02:34:00;;;;;;;92.03;59.50;;;;;;;21.09;73.46;98641.81;4895038;29;20079;-60
2023/03/23 02:37:03;;;;;;;106.75;66.57;;;;;;;21.14;73.21;98643.75;4917833;29;20058;-61
2023/03/23 02:39:48;;;;;;;104.32;66.38;;;;;;;21.17;72.85;98644.03;4914469;29;20047;-60
2023/03/23 02:42:39;;;;;;;108.50;64.35;;;;;;;21.19;72.25;98651.84;4919408;29;20044;-60
2023/03/23 02:45:23;;;;;;;93.38;59.30;;;;;;;21.25;71.46;98654.31;4936674;29;20055;-60
2023/03/23 02:48:12;;;;;;;86.25;52.60;;;;;;;21.23;70.43;98661.84;4923684;29;20091;-60
2023/03/23 02:51:01;;;;;;;89.78;51.20;;;;;;;21.15;70.38;98675.81;4908784;29;20040;-60
2023/03/23 02:53:47;;;;;;;81.25;47.40;;;;;;;21.12;69.42;98670.91;4932237;29;20134;-59
2023/03/23 02:56:36;;;;;;;82.50;46.53;;;;;;;21.21;68.93;98677.44;4891899;29;20045;-60
2023/03/23 02:59:25;;;;;;;97.25;53.90;;;;;;;21.40;67.17;98678.63;4891751;29;20717;-59
2023/03/23 03:02:30;;;;;;;94.43;52.33;;;;;;;21.64;67.83;98678.19;4955055;28;20070;-59
2023/03/23 03:05:16;;;;;;;102.70;55.45;;;;;;;21.72;67.39;98677.66;4933629;28;20039;-60
2023/03/23 03:08:10;;;;;;;;;;;;;;;21.64;67.66;98687.06;4948016;28;20053;-61
2023/03/23 03:10:50;;;;;;;114.85;60.78;;;;;;;21.50;68.12;98684.06;4930037;29;20272;-61
2023/03/23 03:13:52;;;;;;;113.60;64.45;;;;;;;21.43;68.04;98690.75;4944664;28;20215;-60
2023/03/23 03:16:44;;;;;;;122.32;73.32;;;;;;;21.24;67.91;98687.72;4929615;29;20147;-62
2023/03/23 03:19:42;;;;;;;117.78;74.05;;;;;;;21.22;68.45;98710.59;4930232;29;20040;-60
2023/03/23 03:22:17;;;;;;;133.73;82.05;;;;;;;21.11;68.35;98706.97;4922988;29;20106;-60
2023/03/23 03:25:06;;;;;;;137.73;84.47;;;;;;;21.10;69.38;98705.38;4932131;29;20114;-60
2023/03/23 03:27:52;;;;;;;137.43;88.40;;;;;;;21.16;69.09;98712.44;4932622;29;20061;-60
2023/03/23 03:31:00;;;;;;;148.25;92.55;;;;;;;21.04;69.62;98717.19;4932405;29;20114;-58
2023/03/23 03:33:41;;;;;;;141.77;91.75;;;;;;;21.10;69.46;98715.34;4946640;29;20048;-59
2023/03/23 03:36:34;;;;;;;138.32;90.13;;;;;;;21.07;69.77;98727.44;4932430;29;20054;-59
2023/03/23 03:39:23;;;;;;;142.50;88.53;;;;;;;20.90;69.46;98741.06;4932576;29;20063;-58
2023/03/23 03:42:11;;;;;;;147.52;91.70;;;;;;;20.80;70.34;98740.19;4930258;29;20467;-59
2023/03/23 03:44:50;;;;;;;145.30;93.45;;;;;;;20.83;70.40;98743.16;4932940;29;20047;-59
2023/03/23 03:47:44;;;;;;;152.30;93.18;;;;;;;20.91;70.81;98744.56;4932409;29;20062;-60
2023/03/23 03:50:17;;;;;;;151.00;92.60;;;;;;;20.84;70.48;98749.34;4949061;29;20050;-60
2023/03/23 03:53:05;;;;;;;140.35;87.75;;;;;;;20.85;69.93;98742.88;4932493;29;20055;-60
2023/03/23 03:55:56;;;;;;;142.05;87.13;;;;;;;20.89;70.89;98741.31;4932168;29;20055;-60
2023/03/23 03:58:44;;;;;;;131.30;83.38;;;;;;;20.97;70.47;98747.03;4918273;29;20047;-60
2023/03/23 04:02:13;;;;;;;123.40;80.43;;;;;;;21.11;70.14;98752.78;4948476;28;20369;-60
2023/03/23 04:04:52;;;;;;;119.22;74.20;;;;;;;21.25;69.41;98756.66;4943270;28;20383;-59
2023/03/23 04:07:49;;;;;;;112.32;73.57;;;;;;;21.53;68.52;98747.41;4933930;29;20285;-59
2023/03/23 04:10:23;;;;;;;105.13;66.68;;;;;;;21.38;66.78;98758.09;4941120;29;20053;-60
2023/03/23 04:13:10;;;;;;;112.32;68.57;;;;;;;21.62;67.74;98767.41;4931916;29;20641;-58
2023/03/23 04:16:12;;;;;;;101.00;63.28;;;;;;;21.76;66.79;98762.34;4931697;29;20562;-59
2023/03/23 04:19:00;;;;;;;101.03;60.30;;;;;;;21.97;67.02;98774.03;4932070;29;20055;-59
2023/03/23 04:21:41;;;;;;;100.03;61.63;;;;;;;21.97;66.46;98764.06;4932023;29;20059;-61
2023/03/23 04:24:35;;;;;;;79.85;52.30;;;;;;;21.93;64.35;98768.38;4928349;29;20138;-62
2023/03/23 04:27:15;;;;;;;75.28;46.38;;;;;;;22.07;64.64;98768.69;4950268;28;20089;-59
2023/03/23 04:30:04;;;;;;;66.82;42.45;;;;;;;22.06;65.01;98767.88;4947996;28;20453;-60
2023/03/23 04:32:50;;;;;;;53.85;36.63;;;;;;;21.82;64.96;98756.69;4947513;29;20424;-61
2023/03/23 04:35:37;;;;;;;51.47;31.05;;;;;;;21.75;64.56;98749.94;4944153;28;20075;-61
2023/03/23 04:38:23;;;;;;;48.25;32.72;;;;;;;21.64;65.25;98746.38;4930223;29;20150;-60
2023/03/23 04:41:18;;;;;;;46.78;30.55;;;;;;;21.46;65.42;98749.53;4917582;29;20050;-60
2023/03/23 04:44:17;;;;;;;39.15;27.27;;;;;;;21.35;65.65;98754.03;4931382;29;20047;-60
2023/03/23 04:47:12;;;;;;;43.08;26.35;;;;;;;21.34;63.76;98763.19;4931145;28;20051;-60
2023/03/23 04:50:00;;;;;;;40.92;23.30;;;;;;;21.25;64.38;98772.00;4928193;29;20537;-60
2023/03/23 04:52:51;;;;;;;33.97;22.00;;;;;;;21.22;64.23;98773.34;4918673;29;20415;-60
2023/03/23 04:55:35;;;;;;;39.38;22.35;;;;;;;21.38;64.86;98772.38;4948454;29;20054;-59
2023/03/23 04:58:27;;;;;;;32.72;19.70;;;;;;;21.33;63.55;98774.25;4931174;29;20047;-61
2023/03/23 05:01:20;;;;;;;30.08;17.63;;;;;;;21.35;64.02;98767.50;4928473;28;20094;-60
2023/03/23 05:04:26;;;;;;;24.15;16.05;;;;;;;21.43;62.42;98772.41;4913792;29;20059;-60
2023/03/23 05:07:20;;;;;;;;;;;;;;;21.53;61.84;98766.28;4928150;29;20391;-60
2023/03/23 05:10:15;;;;;;;18.70;13.07;;;;;;;21.52;63.35;98756.56;4922157;29;19986;-60
2023/03/23 05:12:52;;;;;;;19.83;13.02;;;;;;;21.56;63.41;98754.13;4927449;29;20044;-59
2023/03/23 05:15:40;;;;;;;23.42;14.45;;;;;;;21.56;61.80;98756.84;4905244;29;20770;-61
2023/03/23 05:18:27;;;;;;;24.92;12.68;;;;;;;21.67;62.68;98753.94;4907656;29;20107;-61
2023/03/23 05:21:11;;;;;;;22.45;12.25;;;;;;;21.71;62.35;98752.34;4904059;29;20142;-61
2023/03/23 05:24:01;;;;;;;18.40;11.80;;;;;;;21.96;62.03;98765.13;4920214;29;20147;-60
2023/03/23 05:26:40;;;;;;;19.88;13.70;;;;;;;21.91;62.94;98755.09;4905944;29;20056;-61
2023/03/23 05:29:37;;;;;;;22.30;14.10;;;;;;;22.00;62.81;98757.31;4925900;29;20632;-60
2023/03/23 05:32:17;;;;;;;27.48;14.23;;;;;;;22.12;62.58;98755.22;4909973;29;20134;-61
2023/03/23 05:35:11;;;;;;;25.65;14.90;;;;;;;22.17;62.58;98758.72;4921925;29;20115;-60
2023/03/23 05:37:53;;;;;;;21.08;14.80;;;;;;;22.30;62.73;98760.94;4891964;29;20544;-59
2023/03/23 05:40:41;;;;;;;24.58;14.93;;;;;;;22.48;61.55;98758.81;4912279;29;20421;-61
2023/03/23 05:43:25;;;;;;;29.23;16.50;;;;;;;22.50;59.01;98757.44;4927707;29;20150;-60
2023/03/23 05:46:23;;;;;;;30.08;17.08;;;;;;;22.47;59.29;98762.56;4911088;28;20066;-60
2023/03/23 05:49:07;;;;;;;27.83;16.67;;;;;;;22.72;59.38;98760.72;4908046;29;20483;-59
2023/03/23 05:51:55;;;;;;;22.45;15.27;;;;;;;22.83;60.68;98753.44;4911700;29;20585;-60
2023/03/23 05:54:36;;;;;;;26.13;15.73;;;;;;;23.14;61.27;98744.25;4910464;29;20043;-59
2023/03/23 05:57:26;;;;;;;24.20;16.30;;;;;;;23.21;61.52;98747.47;4933483;29;20062;-59
2023/03/23 06:00:14;;;;;;;21.08;15.02;;;;;;;23.39;60.13;98740.66;4920494;28;20055;-59
2023/03/23 06:03:11;;;;;;;22.75;15.15;;;;;;;23.43;60.24;98730.91;4947174;28;20141;-59
2023/03/23 06:06:12;;;;;;;25.05;16.40;;;;;;;23.70;58.37;98728.69;4951859;28;20498;-57
2023/03/23 06:09:06;;;;;;;26.92;16.35;;;;;;;23.75;57.94;98738.69;4933587;29;20863;-59
2023/03/23 06:12:26;;;;;;;28.50;17.73;;;;;;;24.06;56.15;98737.44;4902021;28;20047;-60
2023/03/23 06:15:09;;;;;;;27.02;16.27;;;;;;;24.20;56.86;98734.97;4949942;28;20470;-60
2023/03/23 06:18:16;;;;;;;24.80;15.88;;;;;;;24.44;53.75;98724.22;4945741;28;20488;-59
2023/03/23 06:21:25;;;;;;;23.52;14.70;;;;;;;24.33;56.40;98722.69;4904805;29;20494;-60
2023/03/23 06:24:35;;;;;;;24.63;14.30;;;;;;;24.00;57.29;98722.31;4937155;29;20051;-60
2023/03/23 06:27:31;;;;;;;23.38;14.52;;;;;;;23.90;57.67;98708.84;4928923;28;20085;-57
2023/03/23 06:30:26;;;;;;;22.25;14.93;;;;;;;24.24;57.38;98714.38;4950848;28;20061;-59
2023/03/23 06:33:01;;;;;;;28.15;16.65;;;;;;;24.27;56.46;98713.00;4944852;28;20061;-59
2023/03/23 06:36:07;;;;;;;24.55;15.77;;;;;;;24.41;57.20;98713.97;4947871;28;20058;-59
2023/03/23 06:38:55;;;;;;;23.48;16.25;;;;;;;24.51;57.88;98717.44;4925360;29;20118;-60
2023/03/23 06:41:59;;;;;;;24.23;15.32;;;;;;;24.56;57.48;98724.72;4922346;28;20055;-58
2023/03/23 06:44:43;;;;;;;24.27;15.38;;;;;;;24.72;55.63;98717.25;4928064;29;20534;-59
2023/03/23 06:47:31;;;;;;;21.17;14.07;;;;;;;25.20;54.72;98713.56;4921417;29;20055;-59
2023/03/23 06:50:12;;;;;;;18.63;13.25;;;;;;;24.71;53.79;98713.72;4954237;28;20047;-60
2023/03/23 06:53:08;;;;;;;20.30;13.82;;;;;;;24.84;55.50;98715.78;4949318;28;20101;-59
2023/03/23 06:55:44;;;;;;;21.77;13.40;;;;;;;24.81;56.10;98710.13;4946043;28;20046;-59
2023/03/23 06:58:30;;;;;;;19.50;12.77;;;;;;;24.92;56.94;98715.19;4952038;28;20134;-59
2023/03/23 07:01:24;;;;;;;18.13;12.48;;;;;;;25.07;54.57;98708.84;4937484;29;20055;-57
2023/03/23 07:04:11;;;;;;;16.98;12.23;;;;;;;25.16;55.91;98700.88;4925672;28;20054;-58
2023/03/23 07:07:09;;;;;;;19.00;12.05;;;;;;;25.02;54.39;98706.16;4950735;28;20050;-58
2023/03/23 07:09:56;;;;;;;20.35;11.77;;;;;;;25.09;52.35;98706.66;4967908;28;20046;-56
2023/03/23 07:12:44;;;;;;;18.95;12.80;;;;;;;25.30;54.61;98704.53;4934301;29;20043;-61
2023/03/23 07:15:39;;;;;;;18.92;12.75;;;;;;;25.40;54.52;98699.78;4944560;28;20066;-60
2023/03/23 07:18:12;;;;;;;19.90;12.63;;;;;;;25.44;54.62;98692.72;4945301;28;20122;-59
2023/03/23 07:21:09;;;;;;;21.77;12.60;;;;;;;25.20;52.95;98685.66;4941344;29;20813;-58
2023/03/23 07:23:46;;;;;;;16.20;12.80;;;;;;;25.49;54.53;98691.84;4945892;28;20281;-58
2023/03/23 07:26:46;;;;;;;18.83;11.93;;;;;;;25.24;55.02;98689.41;4948571;28;20130;-60
2023/03/23 07:29:26;;;;;;;18.38;12.30;;;;;;;25.20;56.40;98693.78;4951562;28;20081;-55
2023/03/23 07:32:19;;;;;;;19.27;13.13;;;;;;;25.20;55.99;98696.50;4952048;28;20049;-59
2023/03/23 07:35:00;;;;;;;20.27;13.23;;;;;;;25.09;55.80;98695.81;4946521;29;20052;-61
2023/03/23 07:38:04;;;;;;;15.85;12.32;;;;;;;25.22;56.14;98694.31;4933338;28;20047;-57
2023/03/23 07:40:45;;;;;;;23.55;15.10;;;;;;;25.06;52.62;98685.53;4941657;29;20058;-58
2023/03/23 07:43:37;;;;;;;19.85;13.82;;;;;;;24.95;54.44;98681.31;4944510;28;20059;-59
2023/03/23 07:46:12;;;;;;;22.65;14.50;;;;;;;25.01;54.39;98680.97;4958865;28;20138;-59
2023/03/23 07:49:17;;;;;;;17.23;13.27;;;;;;;25.20;56.20;98675.63;4940367;28;20051;-61
2023/03/23 07:52:08;;;;;;;24.02;14.70;;;;;;;25.21;56.45;98671.81;4944258;28;20047;-60
2023/03/23 07:55:02;;;;;;;21.20;14.88;;;;;;;25.11;57.09;98671.13;4931108;29;20479;-59
2023/03/23 07:58:20;;;;;;;22.65;14.65;;;;;;;25.13;56.51;98668.94;4868057;29;20087;-60
2023/03/23 08:01:14;;;;;;;21.10;14.77;;;;;;;25.32;56.60;98659.75;4931573;29;20059;-58
2023/03/23 08:04:20;;;;;;;19.65;15.07;;;;;;;25.11;52.50;98654.84;4944103;28;20102;-62
2023/03/23 08:07:25;;;;;;;19.48;14.75;;;;;;;25.12;54.77;98651.06;4930897;28;20562;-61
2023/03/23 08:10:11;;;;;;;22.02;15.52;;;;;;;25.03;51.29;98650.88;4948541;28;20476;-62
2023/03/23 08:13:09;;;;;;;21.20;15.20;;;;;;;25.13;54.98;98641.84;4948768;28;20718;-61
2023/03/23 08:16:19;;;;;;;25.08;15.23;;;;;;;25.35;51.68;98640.22;4934835;28;20043;-60
2023/03/23 08:19:17;;;;;;;21.00;15.10;;;;;;;24.97;51.49;98636.56;4931841;28;20051;-63
2023/03/23 08:22:15;;;;;;;21.50;16.52;;;;;;;25.36;52.57;98630.16;4940135;28;20109;-62
2023/03/23 08:25:25;;;;;;;18.33;14.43;;;;;;;25.48;54.84;98627.84;4916249;29;20435;-60
2023/03/23 08:28:32;;;;;;;21.40;16.38;;;;;;;25.39;54.84;98619.53;4925229;28;20358;-60
2023/03/23 08:31:27;;;;;;;19.85;15.18;;;;;;;25.20;54.60;98613.28;4939449;28;20801;-61
2023/03/23 08:34:21;;;;;;;22.98;15.40;;;;;;;25.15;55.81;98607.09;4946628;28;20089;-63
2023/03/23 08:37:21;;;;;;;23.85;16.27;;;;;;;25.24;54.89;98603.47;4938899;28;20047;-61
2023/03/23 08:40:09;;;;;;;25.88;15.60;;;;;;;25.45;54.91;98602.09;4948369;28;21429;-64
2023/03/23 08:43:06;;;;;;;22.23;15.07;;;;;;;25.50;53.14;98593.91;4935333;28;20070;-62
2023/03/23 08:46:18;;;;;;;23.45;15.30;;;;;;;25.49;52.50;98588.78;4899551;28;20127;-61
2023/03/23 08:49:21;;;;;;;20.38;15.70;;;;;;;25.49;55.42;98580.66;4922689;29;20056;-60
2023/03/23 08:52:15;;;;;;;;;;;;;;;25.53;54.79;98573.53;4930254;29;20054;-58
2023/03/23 08:55:15;;;;;;;19.95;14.88;;;;;;;25.55;56.34;98575.97;4928239;29;19926;-60
2023/03/23 08:58:16;;;;;;;22.33;15.63;;;;;;;25.37;55.05;98562.06;4926762;29;20043;-60
2023/03/23 09:01:14;;;;;;;23.08;16.10;;;;;;;25.50;50.86;98550.50;4954694;28;20088;-60
2023/03/23 09:04:21;;;;;;;20.77;15.80;;;;;;;25.55;53.45;98551.56;4913816;28;20055;-61
2023/03/23 09:07:21;;;;;;;21.35;14.57;;;;;;;25.59;53.92;98544.44;4942808;28;20446;-62
2023/03/23 09:10:16;;;;;;;27.33;15.07;;;;;;;25.47;51.31;98540.25;4940459;28;20076;-61
2023/03/23 09:12:49;;;;;;;19.27;14.27;;;;;;;25.43;51.21;98539.22;4952181;28;20604;-61
2023/03/23 09:15:37;;;;;;;24.48;14.70;;;;;;;25.50;55.05;98541.56;4937292;28;20173;-61
2023/03/23 09:18:25;;;;;;;19.70;13.65;;;;;;;25.39;53.56;98542.81;4942656;28;20043;-60
2023/03/23 09:21:06;;;;;;;19.42;13.63;;;;;;;25.35;52.23;98534.47;4940227;28;20062;-60
2023/03/23 09:23:53;;;;;;;24.08;13.88;;;;;;;25.46;53.27;98533.19;4940762;28;20454;-58
2023/03/23 09:26:34;;;;;;;20.20;13.65;;;;;;;25.55;52.17;98525.25;4941384;29;20054;-60
2023/03/23 09:29:21;;;;;;;21.65;15.15;;;;;;;25.64;49.68;98515.34;4940161;29;20542;-59
2023/03/23 09:32:02;;;;;;;24.55;14.55;;;;;;;25.68;53.62;98520.97;4939785;28;20150;-59
2023/03/23 09:34:57;;;;;;;25.65;14.30;;;;;;;25.67;50.03;98511.25;5389882;23;20482;-58
2023/03/23 09:37:52;;;;;;;20.83;13.57;;;;;;;25.65;53.30;98524.28;4980077;28;20061;-58
2023/03/23 09:40:50;;;;;;;18.45;13.85;;;;;;;25.65;49.32;98505.31;4980819;28;20153;-59
2023/03/23 09:43:56;;;;;;;24.92;13.10;;;;;;;25.67;51.72;98501.19;4977864;28;20053;-57
2023/03/23 09:46:56;;;;;;;17.33;13.50;;;;;;;25.63;51.95;98496.63;4976913;28;20165;-60
2023/03/23 09:49:51;;;;;;;22.35;13.15;;;;;;;25.62;53.76;98493.16;4943109;28;20069;-55
2023/03/23 09:52:48;;;;;;;19.75;13.88;;;;;;;25.57;53.72;98485.09;4979023;28;20062;-58
2023/03/23 09:55:36;;;;;;;18.23;14.07;;;;;;;25.53;52.43;98480.50;4977833;28;20046;-58
2023/03/23 09:58:34;;;;;;;19.85;14.35;;;;;;;25.46;55.20;98480.88;4981083;28;20144;-59
2023/03/23 10:01:26;;;;;;;21.88;14.88;;;;;;;25.26;54.51;98471.16;4958201;28;20054;-56
2023/03/23 10:04:23;;;;;;;20.35;14.85;;;;;;;25.22;55.76;98464.69;4977794;28;20050;-56
2023/03/23 10:07:13;;;;;;;20.92;14.43;;;;;;;25.24;54.78;98458.97;4978772;28;20054;-55
2023/03/23 10:10:06;;;;;;;18.23;12.13;;;;;;;25.31;54.90;98460.22;4981815;28;20077;-53
2023/03/23 10:12:59;;;;;;;19.00;12.60;;;;;;;25.39;53.54;98456.84;4979973;28;20437;-57
2023/03/23 10:15:48;;;;;;;19.30;13.05;;;;;;;25.37;54.54;98464.47;4957107;28;20034;-50
2023/03/23 10:18:43;;;;;;;21.60;14.18;;;;;;;25.31;54.59;98470.28;4972050;28;20049;-56
2023/03/23 10:21:34;;;;;;;21.90;13.52;;;;;;;25.32;55.16;98464.53;4979177;28;20489;-56
2023/03/23 10:24:17;;;;;;;33.65;15.77;;;;;;;25.31;55.42;98470.28;4975175;28;20089;-54
2023/03/23 10:27:34;;;;;;;19.65;11.63;;;;;;;25.30;53.51;98457.81;4980118;28;20148;-55
2023/03/23 10:30:24;;;;;;;11.43;8.55;;;;;;;25.27;50.04;98458.41;4973036;28;20744;-56
2023/03/23 10:33:45;;;;;;;15.40;8.20;;;;;;;25.35;51.75;98457.72;4978777;28;20046;-57
2023/03/23 10:36:37;;;;;;;12.05;8.35;;;;;;;25.35;50.78;98455.84;4975039;28;20053;-57
2023/03/23 10:39:28;;;;;;;11.20;8.18;;;;;;;25.37;49.59;98456.31;4977506;28;20108;-59
2023/03/23 10:42:09;;;;;;;12.88;8.10;;;;;;;25.37;50.74;98448.19;4975950;28;20061;-53
2023/03/23 10:44:56;;;;;;;8.95;7.45;;;;;;;25.30;48.71;98441.53;4976475;28;20113;-56
2023/03/23 10:47:56;;;;;;;16.10;7.93;;;;;;;25.31;50.44;98437.72;4979509;28;20038;-55
2023/03/23 10:50:36;;;;;;;11.65;7.75;;;;;;;25.21;50.78;98444.09;4969838;28;20358;-56
2023/03/23 10:53:37;;;;;;;13.60;7.72;;;;;;;25.10;51.55;98441.81;4968886;28;20042;-52
2023/03/23 10:56:39;;;;;;;12.90;8.43;;;;;;;24.96;50.06;98431.72;4982443;28;20109;-50
2023/03/23 10:59:32;;;;;;;11.63;8.65;;;;;;;24.94;48.53;98430.41;4981346;28;20038;-57
2023/03/23 11:02:24;;;;;;;10.77;8.07;;;;;;;24.99;49.11;98425.72;4963350;28;20073;-59
2023/03/23 11:05:27;;;;;;;16.38;8.52;;;;;;;25.13;48.55;98436.63;4973651;28;20434;-57
2023/03/23 11:08:31;;;;;;;15.15;8.60;;;;;;;25.14;48.39;98432.81;4981370;28;20058;-59
2023/03/23 11:11:16;;;;;;;12.75;7.65;;;;;;;25.07;52.21;98431.56;4964644;28;20049;-54
2023/03/23 11:14:27;;;;;;;14.10;8.43;;;;;;;24.92;51.70;98427.16;4978559;28;20137;-58
2023/03/23 11:17:04;;;;;;;13.57;9.48;;;;;;;24.88;53.34;98428.84;4962985;28;20047;-53
2023/03/23 11:19:58;;;;;;;17.63;9.75;;;;;;;24.76;51.67;98420.31;4981300;28;20133;-56
2023/03/23 11:22:35;;;;;;;14.18;9.48;;;;;;;24.70;52.00;98418.75;4974858;28;20042;-58
2023/03/23 11:25:22;;;;;;;14.95;10.02;;;;;;;24.59;52.32;98421.63;4980239;28;20054;-58
2023/03/23 11:28:04;;;;;;;13.27;9.25;;;;;;;24.54;53.46;98413.56;4980986;28;20429;-58
2023/03/23 11:30:55;;;;;;;19.45;9.90;;;;;;;24.51;53.88;98411.44;4985214;28;20046;-58
2023/03/23 11:34:16;;;;;;;20.55;10.40;;;;;;;24.45;53.81;98404.47;4978090;28;20166;-58
2023/03/23 11:37:25;;;;;;;21.02;11.35;;;;;;;24.41;52.97;98403.44;4955377;28;20105;-56
2023/03/23 11:40:14;;;;;;;21.33;11.40;;;;;;;24.31;54.47;98402.75;4953057;28;20164;-56
2023/03/23 11:43:09;;;;;;;17.23;10.70;;;;;;;24.32;52.84;98410.59;4962891;28;20670;-55
2023/03/23 11:46:17;;;;;;;12.30;10.00;;;;;;;24.29;52.53;98407.66;4964649;28;20109;-58
2023/03/23 11:49:05;;;;;;;17.38;11.52;;;;;;;24.25;54.72;98399.31;4963506;28;20499;-60
2023/03/23 11:51:59;;;;;;;19.10;11.23;;;;;;;24.21;53.83;98397.47;4962595;28;20644;-58
2023/03/23 11:55:13;;;;;;;18.37;11.30;;;;;;;24.19;55.62;98407.75;4964781;28;20367;-56
2023/03/23 11:57:54;;;;;;;20.27;11.70;;;;;;;24.17;50.49;98403.44;4959636;28;20324;-58
2023/03/23 12:00:56;;;;;;;18.98;11.77;;;;;;;24.12;55.71;98399.94;4963426;28;20039;-55
2023/03/23 12:04:16;;;;;;;15.68;11.38;;;;;;;24.03;56.17;98404.41;4964897;28;20054;-55
2023/03/23 12:07:00;;;;;;;;;;;;;;;23.95;56.38;98405.00;4965105;28;20039;-56
2023/03/23 12:10:09;;;;;;;18.58;11.38;;;;;;;23.84;56.86;98409.72;4960736;28;20125;-56
2023/03/23 12:13:03;;;;;;;15.63;11.43;;;;;;;23.80;56.70;98405.97;4960517;28;20381;-59
2023/03/23 12:15:55;;;;;;;19.92;12.43;;;;;;;23.79;56.87;98404.34;4961473;28;20054;-56
2023/03/23 12:19:06;;;;;;;19.15;11.60;;;;;;;23.78;57.38;98394.63;4949845;28;20085;-58
2023/03/23 12:22:20;;;;;;;18.23;11.90;;;;;;;23.75;56.34;98400.63;4942683;28;20055;-59
2023/03/23 12:25:34;;;;;;;17.27;11.73;;;;;;;23.71;58.03;98394.16;4968239;28;20056;-56
2023/03/23 12:28:20;;;;;;;20.98;11.95;;;;;;;23.67;57.64;98398.53;4962242;28;20686;-58
2023/03/23 12:31:15;;;;;;;20.58;13.25;;;;;;;23.63;57.63;98397.50;4964624;28;20902;-62
2023/03/23 12:34:18;;;;;;;22.92;12.50;;;;;;;23.57;57.80;98402.13;4960434;28;20058;-62
2023/03/23 12:37:35;;;;;;;24.05;12.55;;;;;;;23.54;58.30;98404.59;4964132;28;20046;-59
2023/03/23 12:40:29;;;;;;;23.83;14.00;;;;;;;23.53;58.70;98408.38;4948229;28;20093;-60
2023/03/23 12:43:35;;;;;;;17.65;12.63;;;;;;;23.49;59.09;98401.94;4961880;28;20051;-58
2023/03/23 12:46:37;;;;;;;19.73;12.35;;;;;;;23.43;59.21;98413.84;4947175;28;20054;-57
2023/03/23 12:49:27;;;;;;;16.00;11.88;;;;;;;23.36;59.45;98407.94;4952248;28;20836;-58
2023/03/23 12:52:32;;;;;;;18.10;12.65;;;;;;;23.31;59.57;98410.69;4965634;28;20031;-59
2023/03/23 12:55:30;;;;;;;20.77;12.23;;;;;;;23.24;59.47;98414.50;4951847;28;20043;-58
2023/03/23 12:58:25;;;;;;;19.92;13.32;;;;;;;23.19;59.77;98411.84;4948291;28;20105;-59
2023/03/23 13:01:22;;;;;;;20.58;13.45;;;;;;;23.16;59.50;98414.31;4960360;28;20066;-57
2023/03/23 13:04:15;;;;;;;20.33;13.30;;;;;;;23.10;60.04;98410.03;4944285;28;20538;-59
2023/03/23 13:06:55;;;;;;;19.05;12.07;;;;;;;23.06;59.15;98404.38;4945299;28;20054;-59
2023/03/23 13:10:23;;;;;;;18.58;13.13;;;;;;;23.05;59.45;98410.06;4943621;28;20543;-59
2023/03/23 13:13:26;;;;;;;19.67;12.90;;;;;;;23.04;59.43;98406.56;4942346;28;20081;-59
2023/03/23 13:16:34;;;;;;;16.35;12.57;;;;;;;23.04;60.04;98409.25;4939519;28;20042;-60